createdAt,value
2023-01-26T00:00:24.083Z,20.43
2023-01-26T00:01:26.610Z,15.31
2023-01-26T00:02:29.104Z,15.22
2023-01-26T00:03:34.000Z,15.57
2023-01-26T00:04:35.980Z,14.31
2023-01-26T00:05:38.926Z,13.23
2023-01-26T00:06:41.996Z,13.06
2023-01-26T00:07:44.599Z,11.04
2023-01-26T00:08:47.142Z,9.79
2023-01-26T00:09:49.670Z,11.13
2023-01-26T00:10:52.609Z,11.59
2023-01-26T00:11:55.033Z,9.93
2023-01-26T00:12:57.629Z,10.23
2023-01-26T00:14:00.382Z,11.27
2023-01-26T00:15:02.913Z,10.41
2023-01-26T00:16:05.704Z,11.52
2023-01-26T00:17:08.379Z,11.04
2023-01-26T00:18:10.955Z,12.50
2023-01-26T00:19:13.492Z,14.61
2023-01-26T00:20:16.326Z,20.56
2023-01-26T00:21:18.886Z,18.55
2023-01-26T00:22:21.411Z,17.68
2023-01-26T00:23:23.909Z,15.87
2023-01-26T00:24:26.349Z,20.31
2023-01-26T00:25:28.889Z,16.75
2023-01-26T00:26:31.727Z,19.56
2023-01-26T00:27:34.262Z,17.88
2023-01-26T00:28:36.868Z,24.83
2023-01-26T00:29:39.390Z,20.42
2023-01-26T00:30:42.152Z,19.69
2023-01-26T00:31:44.787Z,17.76
2023-01-26T00:32:47.494Z,17.52
2023-01-26T00:33:50.045Z,17.54
2023-01-26T00:34:53.703Z,17.16
2023-01-26T00:35:56.398Z,16.01
2023-01-26T00:36:59.088Z,17.84
2023-01-26T00:38:01.638Z,16.86
2023-01-26T00:39:04.191Z,17.97
2023-01-26T00:40:07.039Z,16.55
2023-01-26T00:41:09.585Z,18.04
2023-01-26T00:42:12.119Z,16.46
2023-01-26T00:43:14.656Z,16.04
2023-01-26T00:44:17.240Z,16.89
2023-01-26T00:45:19.776Z,15.37
2023-01-26T00:46:22.570Z,16.32
2023-01-26T00:47:25.072Z,16.10
2023-01-26T00:48:27.840Z,14.45
2023-01-26T00:49:30.419Z,13.60
2023-01-26T00:50:33.167Z,12.99
2023-01-26T00:51:35.702Z,15.00
2023-01-26T00:52:38.245Z,13.01
2023-01-26T00:53:40.782Z,15.32
2023-01-26T00:54:43.374Z,15.13
2023-01-26T00:55:45.912Z,15.35
2023-01-26T00:56:48.853Z,13.57
2023-01-26T00:57:51.390Z,14.29
2023-01-26T00:58:53.927Z,16.29
2023-01-26T00:59:56.543Z,15.41
2023-01-26T01:00:59.231Z,16.45
2023-01-26T01:02:01.937Z,16.38
2023-01-26T01:03:04.481Z,16.87
2023-01-26T01:04:07.011Z,16.62
2023-01-26T01:05:09.977Z,15.31
2023-01-26T01:06:12.615Z,15.60
2023-01-26T01:07:15.176Z,16.59
2023-01-26T01:08:17.728Z,18.02
2023-01-26T01:09:20.259Z,17.11
2023-01-26T01:10:23.203Z,15.71
2023-01-26T01:11:25.738Z,17.73
2023-01-26T01:12:28.368Z,17.03
2023-01-26T01:13:30.904Z,18.16
2023-01-26T01:14:33.693Z,18.24
2023-01-26T01:15:36.244Z,17.34
2023-01-26T01:16:39.155Z,25.82
2023-01-26T01:17:41.692Z,25.02
2023-01-26T01:18:44.233Z,25.57
2023-01-26T01:19:46.761Z,23.57
2023-01-26T01:20:49.299Z,20.01
2023-01-26T01:21:51.848Z,22.32
2023-01-26T01:22:54.412Z,20.85
2023-01-26T01:23:56.967Z,23.33
2023-01-26T01:24:59.481Z,22.26
2023-01-26T01:26:02.050Z,24.90
2023-01-26T01:27:04.599Z,27.55
2023-01-26T01:28:07.148Z,31.91
2023-01-26T01:29:09.721Z,34.93
2023-01-26T01:30:13.379Z,34.59
2023-01-26T01:31:16.172Z,31.38
2023-01-26T01:32:18.956Z,34.74
2023-01-26T01:33:21.489Z,33.51
2023-01-26T01:34:24.034Z,30.75
2023-01-26T01:35:26.567Z,28.40
2023-01-26T01:36:29.415Z,24.98
2023-01-26T01:37:31.941Z,24.24
2023-01-26T01:38:34.894Z,22.91
2023-01-26T01:39:37.434Z,21.11
2023-01-26T01:40:40.091Z,20.65
2023-01-26T01:41:42.540Z,22.98
2023-01-26T01:42:45.074Z,21.29
2023-01-26T01:43:47.617Z,20.51
2023-01-26T01:44:50.241Z,18.97
2023-01-26T01:45:52.779Z,19.35
2023-01-26T01:46:55.816Z,17.76
2023-01-26T01:47:58.396Z,19.71
2023-01-26T01:49:00.830Z,19.97
2023-01-26T01:50:03.471Z,23.74
2023-01-26T01:51:05.998Z,22.53
2023-01-26T01:52:08.537Z,22.38
2023-01-26T01:53:11.126Z,22.07
2023-01-26T01:54:13.668Z,19.99
2023-01-26T01:55:16.193Z,20.27
2023-01-26T01:56:19.156Z,21.54
2023-01-26T01:57:21.684Z,21.19
2023-01-26T01:58:24.248Z,16.68
2023-01-26T01:59:26.761Z,19.86
2023-01-26T02:00:29.486Z,15.58
2023-01-26T02:01:31.951Z,17.62
2023-01-26T02:02:34.924Z,29.64
2023-01-26T02:03:37.505Z,25.72
2023-01-26T02:04:40.036Z,26.93
2023-01-26T02:05:42.617Z,26.11
2023-01-26T02:06:45.195Z,24.81
2023-01-26T02:07:47.768Z,24.72
2023-01-26T02:08:50.208Z,20.11
2023-01-26T02:09:52.757Z,22.39
2023-01-26T02:10:55.300Z,20.88
2023-01-26T02:11:57.823Z,20.72
2023-01-26T02:13:00.422Z,23.40
2023-01-26T02:14:02.933Z,14.54
2023-01-26T02:15:05.468Z,13.62
2023-01-26T02:16:08.368Z,15.14
2023-01-26T02:17:11.141Z,15.24
2023-01-26T02:18:13.727Z,11.85
2023-01-26T02:19:16.251Z,10.83
2023-01-26T02:20:19.020Z,13.49
2023-01-26T02:21:21.569Z,10.08
2023-01-26T02:22:24.105Z,10.71
2023-01-26T02:23:26.668Z,11.82
2023-01-26T02:24:29.401Z,12.66
2023-01-26T02:25:31.940Z,13.80
2023-01-26T02:26:34.679Z,12.11
2023-01-26T02:27:37.209Z,15.45
2023-01-26T02:28:39.787Z,15.06
2023-01-26T02:29:42.516Z,17.50
2023-01-26T02:30:45.408Z,21.42
2023-01-26T02:31:48.160Z,25.99
2023-01-26T02:32:50.763Z,25.76
2023-01-26T02:33:53.343Z,24.31
2023-01-26T02:34:55.919Z,30.65
2023-01-26T02:35:58.522Z,34.78
2023-01-26T02:37:01.153Z,47.87
2023-01-26T02:38:03.713Z,33.31
2023-01-26T02:39:06.248Z,34.74
2023-01-26T02:40:09.753Z,37.50
2023-01-26T02:41:12.756Z,36.93
2023-01-26T02:42:15.561Z,57.21
2023-01-26T02:43:18.098Z,62.87
2023-01-26T02:44:20.664Z,51.27
2023-01-26T02:45:23.200Z,43.69
2023-01-26T02:46:26.050Z,33.88
2023-01-26T02:47:28.559Z,31.96
2023-01-26T02:48:31.079Z,30.93
2023-01-26T02:49:33.675Z,30.68
2023-01-26T02:50:36.421Z,23.75
2023-01-26T02:51:39.004Z,20.49
2023-01-26T02:52:41.775Z,17.58
2023-01-26T02:53:44.309Z,15.63
2023-01-26T02:54:46.890Z,14.65
2023-01-26T02:55:49.446Z,18.17
2023-01-26T02:56:52.398Z,12.87
2023-01-26T02:57:54.935Z,11.67
2023-01-26T02:58:57.508Z,10.77
2023-01-26T03:00:00.127Z,10.21
2023-01-26T03:01:02.937Z,11.44
2023-01-26T03:02:05.838Z,14.46
2023-01-26T03:03:08.475Z,13.16
2023-01-26T03:04:11.015Z,17.17
2023-01-26T03:05:13.593Z,10.43
2023-01-26T03:06:16.421Z,14.12
2023-01-26T03:07:18.967Z,15.08
2023-01-26T03:08:21.502Z,14.13
2023-01-26T03:09:24.034Z,18.08
2023-01-26T03:10:26.771Z,16.87
2023-01-26T03:11:29.329Z,21.99
2023-01-26T03:12:31.852Z,21.85
2023-01-26T03:13:34.446Z,18.79
2023-01-26T03:14:36.995Z,20.30
2023-01-26T03:15:39.526Z,19.87
2023-01-26T03:16:42.176Z,27.33
2023-01-26T03:17:44.717Z,23.95
2023-01-26T03:18:47.248Z,25.33
2023-01-26T03:19:49.777Z,27.63
2023-01-26T03:20:52.678Z,30.82
2023-01-26T03:21:55.198Z,36.12
2023-01-26T03:22:57.741Z,36.71
2023-01-26T03:24:00.335Z,28.57
2023-01-26T03:25:02.857Z,42.20
2023-01-26T03:26:05.626Z,40.21
2023-01-26T03:27:08.207Z,45.89
2023-01-26T03:28:10.733Z,32.89
2023-01-26T03:29:13.278Z,52.97
2023-01-26T03:30:16.074Z,65.46
2023-01-26T03:31:19.026Z,45.62
2023-01-26T03:32:21.538Z,38.21
2023-01-26T03:33:24.073Z,41.31
2023-01-26T03:34:26.644Z,36.85
2023-01-26T03:35:29.197Z,40.25
2023-01-26T03:36:32.045Z,41.45
2023-01-26T03:37:34.582Z,43.13
2023-01-26T03:38:37.122Z,43.35
2023-01-26T03:39:39.688Z,43.55
2023-01-26T03:40:42.418Z,46.06
2023-01-26T03:41:45.090Z,47.20
2023-01-26T03:42:47.591Z,45.41
2023-01-26T03:43:50.137Z,48.40
2023-01-26T03:44:52.714Z,44.12
2023-01-26T03:45:55.262Z,41.60
2023-01-26T03:46:58.375Z,39.11
2023-01-26T03:48:01.164Z,40.34
2023-01-26T03:49:03.644Z,33.39
2023-01-26T03:50:06.690Z,33.84
2023-01-26T03:51:09.224Z,35.78
2023-01-26T03:52:11.827Z,35.31
2023-01-26T03:53:14.266Z,25.85
2023-01-26T03:54:16.803Z,31.34
2023-01-26T03:55:19.336Z,36.27
2023-01-26T03:56:22.251Z,37.45
2023-01-26T03:57:25.183Z,37.44
2023-01-26T03:58:27.713Z,37.31
2023-01-26T03:59:30.460Z,32.38
2023-01-26T04:00:33.138Z,31.79
2023-01-26T04:01:35.745Z,30.82
2023-01-26T04:02:38.329Z,25.65
2023-01-26T04:03:40.880Z,26.31
2023-01-26T04:04:43.434Z,33.67
2023-01-26T04:05:45.976Z,28.09
2023-01-26T04:06:48.852Z,32.27
2023-01-26T04:07:51.464Z,25.15
2023-01-26T04:08:54.008Z,26.09
2023-01-26T04:09:56.551Z,29.59
2023-01-26T04:10:59.505Z,32.00
2023-01-26T04:12:02.032Z,30.69
2023-01-26T04:13:04.564Z,31.57
2023-01-26T04:14:07.111Z,28.86
2023-01-26T04:15:09.854Z,29.68
2023-01-26T04:16:12.817Z,31.17
2023-01-26T04:17:15.536Z,31.67
2023-01-26T04:18:18.140Z,30.73
2023-01-26T04:19:20.709Z,31.21
2023-01-26T04:20:23.535Z,32.31
2023-01-26T04:21:26.060Z,29.62
2023-01-26T04:22:28.596Z,31.41
2023-01-26T04:23:31.146Z,32.07
2023-01-26T04:24:33.699Z,29.90
2023-01-26T04:25:36.238Z,29.40
2023-01-26T04:26:38.871Z,29.99
2023-01-26T04:27:41.405Z,31.35
2023-01-26T04:28:43.952Z,29.35
2023-01-26T04:29:46.513Z,27.45
2023-01-26T04:30:49.259Z,31.82
2023-01-26T04:31:52.095Z,27.28
2023-01-26T04:32:54.911Z,29.99
2023-01-26T04:33:57.464Z,30.98
2023-01-26T04:35:00.002Z,29.26
2023-01-26T04:36:02.802Z,29.25
2023-01-26T04:37:05.419Z,27.91
2023-01-26T04:38:07.957Z,27.25
2023-01-26T04:39:10.503Z,26.79
2023-01-26T04:40:13.483Z,28.09
2023-01-26T04:41:16.301Z,27.26
2023-01-26T04:42:18.856Z,27.19
2023-01-26T04:43:21.390Z,26.36
2023-01-26T04:44:23.943Z,27.81
2023-01-26T04:45:26.482Z,26.53
2023-01-26T04:46:29.321Z,28.63
2023-01-26T04:47:31.871Z,30.92
2023-01-26T04:48:34.416Z,25.00
2023-01-26T04:49:36.955Z,24.15
2023-01-26T04:50:39.818Z,24.56
2023-01-26T04:51:42.397Z,20.83
2023-01-26T04:52:44.952Z,20.61
2023-01-26T04:53:47.481Z,22.51
2023-01-26T04:54:50.054Z,23.53
2023-01-26T04:55:52.594Z,24.05
2023-01-26T04:56:55.751Z,24.51
2023-01-26T04:57:58.297Z,26.95
2023-01-26T04:59:00.826Z,25.68
2023-01-26T05:00:03.675Z,26.19
2023-01-26T05:01:06.300Z,29.65
2023-01-26T05:02:09.179Z,27.51
2023-01-26T05:03:11.696Z,27.75
2023-01-26T05:04:14.246Z,28.24
2023-01-26T05:05:16.781Z,27.40
2023-01-26T05:06:19.409Z,26.33
2023-01-26T05:07:22.023Z,30.37
2023-01-26T05:08:24.620Z,29.71
2023-01-26T05:09:27.144Z,28.15
2023-01-26T05:10:30.120Z,39.63
2023-01-26T05:11:32.660Z,28.71
2023-01-26T05:12:35.223Z,34.73
2023-01-26T05:13:37.678Z,41.21
2023-01-26T05:14:40.216Z,42.34
2023-01-26T05:15:42.777Z,47.05
2023-01-26T05:16:45.535Z,52.97
2023-01-26T05:17:48.094Z,47.01
2023-01-26T05:18:50.629Z,42.57
2023-01-26T05:19:53.492Z,41.14
2023-01-26T05:20:56.443Z,38.82
2023-01-26T05:21:59.016Z,33.46
2023-01-26T05:23:01.874Z,33.11
2023-01-26T05:24:04.746Z,36.23
2023-01-26T05:25:07.449Z,39.41
2023-01-26T05:26:10.413Z,55.68
2023-01-26T05:27:12.974Z,37.01
2023-01-26T05:28:15.590Z,54.58
2023-01-26T05:29:18.145Z,68.13
2023-01-26T05:30:20.794Z,62.09
2023-01-26T05:31:23.344Z,65.08
2023-01-26T05:32:26.172Z,58.94
2023-01-26T05:33:28.759Z,69.99
2023-01-26T05:34:31.273Z,65.93
2023-01-26T05:35:33.739Z,62.63
2023-01-26T05:36:36.488Z,60.75
2023-01-26T05:37:39.018Z,64.09
2023-01-26T05:38:41.591Z,62.21
2023-01-26T05:39:44.136Z,63.63
2023-01-26T05:40:47.172Z,63.66
2023-01-26T05:41:49.740Z,70.47
2023-01-26T05:42:52.241Z,65.93
2023-01-26T05:43:54.837Z,55.16
2023-01-26T05:44:57.382Z,52.81
2023-01-26T05:45:59.972Z,50.08
2023-01-26T05:47:02.563Z,55.75
2023-01-26T05:48:05.093Z,62.10
2023-01-26T05:49:07.531Z,58.88
2023-01-26T05:50:10.664Z,58.71
2023-01-26T05:51:13.648Z,66.10
2023-01-26T05:52:16.172Z,58.19
2023-01-26T05:53:18.701Z,63.33
2023-01-26T05:54:21.250Z,69.87
2023-01-26T05:55:23.801Z,70.19
2023-01-26T05:56:26.683Z,67.49
2023-01-26T05:57:29.198Z,69.50
2023-01-26T05:58:31.746Z,68.43
2023-01-26T05:59:34.286Z,69.89
2023-01-26T06:00:37.031Z,65.02
2023-01-26T06:01:39.570Z,67.87
2023-01-26T06:02:42.125Z,75.59
2023-01-26T06:03:44.703Z,70.29
2023-01-26T06:04:47.416Z,68.68
2023-01-26T06:05:49.991Z,75.90
2023-01-26T06:06:53.085Z,72.11
2023-01-26T06:07:55.600Z,70.79
2023-01-26T06:08:58.141Z,74.31
2023-01-26T06:10:00.707Z,67.34
2023-01-26T06:11:03.313Z,67.44
2023-01-26T06:12:05.853Z,67.97
2023-01-26T06:13:08.391Z,70.75
2023-01-26T06:14:10.928Z,67.03
2023-01-26T06:15:13.470Z,63.42
2023-01-26T06:16:16.797Z,63.14
2023-01-26T06:17:19.394Z,61.41
2023-01-26T06:18:21.962Z,57.45
2023-01-26T06:19:24.557Z,58.50
2023-01-26T06:20:27.417Z,63.40
2023-01-26T06:21:30.138Z,53.35
2023-01-26T06:22:32.672Z,56.99
2023-01-26T06:23:35.268Z,55.47
2023-01-26T06:24:37.809Z,52.99
2023-01-26T06:25:40.373Z,52.93
2023-01-26T06:26:43.424Z,52.21
2023-01-26T06:27:45.955Z,47.31
2023-01-26T06:28:48.502Z,48.57
2023-01-26T06:29:51.092Z,45.55
2023-01-26T06:30:53.798Z,46.04
2023-01-26T06:31:56.455Z,46.48
2023-01-26T06:33:00.234Z,41.61
2023-01-26T06:34:03.067Z,40.90
2023-01-26T06:35:05.591Z,38.59
2023-01-26T06:36:09.279Z,35.06
2023-01-26T06:37:11.875Z,33.91
2023-01-26T06:38:14.613Z,29.22
2023-01-26T06:39:17.288Z,29.40
2023-01-26T06:40:19.912Z,29.24
2023-01-26T06:41:22.648Z,27.37
2023-01-26T06:42:25.317Z,28.22
2023-01-26T06:43:27.856Z,29.28
2023-01-26T06:44:30.400Z,29.35
2023-01-26T06:45:32.968Z,26.50
2023-01-26T06:46:35.669Z,28.27
2023-01-26T06:47:38.215Z,26.58
2023-01-26T06:48:40.756Z,25.99
2023-01-26T06:49:43.287Z,25.91
2023-01-26T06:50:46.068Z,23.09
2023-01-26T06:51:48.607Z,24.38
2023-01-26T06:52:51.237Z,23.16
2023-01-26T06:53:53.711Z,21.47
2023-01-26T06:54:56.264Z,19.42
2023-01-26T06:55:58.796Z,17.21
2023-01-26T06:57:01.464Z,16.67
2023-01-26T06:58:04.045Z,17.66
2023-01-26T06:59:06.807Z,19.02
2023-01-26T07:00:10.656Z,17.75
2023-01-26T07:01:13.642Z,17.48
2023-01-26T07:02:16.388Z,16.47
2023-01-26T07:03:18.986Z,16.11
2023-01-26T07:04:21.518Z,14.92
2023-01-26T07:05:23.949Z,15.91
2023-01-26T07:06:26.687Z,14.34
2023-01-26T07:07:29.227Z,15.57
2023-01-26T07:08:31.870Z,15.13
2023-01-26T07:09:34.417Z,13.07
2023-01-26T07:10:37.351Z,12.57
2023-01-26T07:11:39.889Z,11.18
2023-01-26T07:12:42.439Z,9.78
2023-01-26T07:13:44.971Z,7.72
2023-01-26T07:14:47.518Z,6.17
2023-01-26T07:15:50.074Z,5.83
2023-01-26T07:16:52.807Z,5.72
2023-01-26T07:17:55.437Z,5.26
2023-01-26T07:18:58.115Z,5.09
2023-01-26T07:20:00.759Z,4.56
2023-01-26T07:21:03.298Z,4.79
2023-01-26T07:22:06.143Z,4.96
2023-01-26T07:23:08.626Z,4.57
2023-01-26T07:24:11.304Z,5.00
2023-01-26T07:25:14.185Z,4.95
2023-01-26T07:26:17.028Z,5.90
2023-01-26T07:27:19.625Z,4.91
2023-01-26T07:28:22.154Z,5.14
2023-01-26T07:29:24.754Z,4.53
2023-01-26T07:30:27.820Z,5.24
2023-01-26T07:31:30.360Z,5.77
2023-01-26T07:32:33.266Z,6.46
2023-01-26T07:33:35.816Z,6.17
2023-01-26T07:34:38.393Z,6.72
2023-01-26T07:35:40.928Z,6.51
2023-01-26T07:36:43.847Z,6.87
2023-01-26T07:37:46.486Z,6.25
2023-01-26T07:38:49.315Z,6.67
2023-01-26T07:39:52.007Z,4.33
2023-01-26T07:40:54.760Z,3.58
2023-01-26T07:41:57.344Z,4.44
2023-01-26T07:42:59.874Z,4.47
2023-01-26T07:44:02.526Z,4.26
2023-01-26T07:45:05.149Z,4.42
2023-01-26T07:46:08.120Z,4.36
2023-01-26T07:47:10.635Z,4.87
2023-01-26T07:48:13.171Z,5.09
2023-01-26T07:49:15.732Z,5.53
2023-01-26T07:50:18.479Z,5.17
2023-01-26T07:51:21.101Z,5.41
2023-01-26T07:52:23.625Z,5.89
2023-01-26T07:53:26.169Z,6.31
2023-01-26T07:54:28.710Z,6.30
2023-01-26T07:55:31.272Z,6.01
2023-01-26T07:56:34.268Z,5.60
2023-01-26T07:57:36.802Z,4.63
2023-01-26T07:58:39.385Z,4.93
2023-01-26T07:59:41.941Z,4.94
2023-01-26T08:00:44.906Z,4.80
2023-01-26T08:01:47.575Z,4.02
2023-01-26T08:02:50.107Z,4.58
2023-01-26T08:03:52.657Z,4.49
2023-01-26T08:04:55.189Z,5.68
2023-01-26T08:05:57.772Z,7.01
2023-01-26T08:07:00.819Z,5.16
2023-01-26T08:08:03.587Z,6.41
2023-01-26T08:09:06.118Z,6.91
2023-01-26T08:10:09.793Z,7.24
2023-01-26T08:11:12.802Z,7.87
2023-01-26T08:12:15.335Z,9.01
2023-01-26T08:13:26.633Z,5.94
2023-01-26T08:14:22.281Z,6.35
2023-01-26T08:15:24.823Z,5.47
2023-01-26T08:16:27.770Z,5.43
2023-01-26T08:17:30.381Z,6.02
2023-01-26T08:18:32.972Z,5.11
2023-01-26T08:19:35.490Z,5.69
2023-01-26T08:20:38.346Z,5.84
2023-01-26T08:21:40.919Z,6.07
2023-01-26T08:22:43.452Z,5.89
2023-01-26T08:23:46.000Z,6.91
2023-01-26T08:24:48.545Z,7.23
2023-01-26T08:25:51.116Z,6.08
2023-01-26T08:26:54.080Z,6.06
2023-01-26T08:27:56.625Z,6.79
2023-01-26T08:28:59.219Z,6.44
2023-01-26T08:30:01.791Z,6.13
2023-01-26T08:31:04.405Z,6.44
2023-01-26T08:32:07.162Z,6.22
2023-01-26T08:33:09.743Z,6.60
2023-01-26T08:34:12.416Z,6.11
2023-01-26T08:35:14.969Z,5.63
2023-01-26T08:36:17.714Z,5.37
2023-01-26T08:37:20.308Z,4.83
2023-01-26T08:38:22.879Z,5.67
2023-01-26T08:39:25.405Z,5.69
2023-01-26T08:40:28.155Z,5.94
2023-01-26T08:41:30.709Z,5.07
2023-01-26T08:42:33.271Z,5.56
2023-01-26T08:43:35.832Z,5.36
2023-01-26T08:44:38.374Z,5.59
2023-01-26T08:45:40.983Z,6.21
2023-01-26T08:46:43.950Z,5.16
2023-01-26T08:47:46.615Z,6.33
2023-01-26T08:48:49.197Z,5.22
2023-01-26T08:49:51.818Z,4.77
2023-01-26T08:50:54.477Z,4.72
2023-01-26T08:51:57.017Z,4.04
2023-01-26T08:52:59.580Z,4.49
2023-01-26T08:54:02.112Z,4.25
2023-01-26T08:55:04.703Z,4.69
2023-01-26T08:56:08.151Z,4.46
2023-01-26T08:57:11.718Z,4.31
2023-01-26T08:58:14.267Z,4.42
2023-01-26T08:59:16.810Z,4.45
2023-01-26T09:00:19.791Z,5.02
2023-01-26T09:01:22.380Z,4.63
2023-01-26T09:02:25.020Z,4.69
2023-01-26T09:03:28.086Z,4.61
2023-01-26T09:04:30.624Z,4.49
2023-01-26T09:05:33.169Z,4.41
2023-01-26T09:06:35.823Z,4.07
2023-01-26T09:07:38.360Z,5.27
2023-01-26T09:08:40.975Z,4.19
2023-01-26T09:09:43.601Z,4.87
2023-01-26T09:10:47.011Z,4.33
2023-01-26T09:11:49.558Z,4.50
2023-01-26T09:12:52.325Z,4.39
2023-01-26T09:13:55.039Z,4.30
2023-01-26T09:14:57.605Z,5.51
2023-01-26T09:16:00.135Z,4.53
2023-01-26T09:17:02.726Z,3.95
2023-01-26T09:18:05.273Z,4.07
2023-01-26T09:19:08.068Z,4.93
2023-01-26T09:20:11.392Z,4.22
2023-01-26T09:21:14.213Z,3.78
2023-01-26T09:22:16.792Z,5.05
2023-01-26T09:23:19.330Z,3.99
2023-01-26T09:24:21.980Z,4.13
2023-01-26T09:25:24.809Z,4.69
2023-01-26T09:26:28.307Z,4.29
2023-01-26T09:27:31.438Z,4.24
2023-01-26T09:28:34.915Z,5.48
2023-01-26T09:29:37.520Z,4.79
2023-01-26T09:30:40.458Z,6.23
2023-01-26T09:31:46.272Z,7.91
2023-01-26T09:32:49.427Z,5.97
2023-01-26T09:33:52.119Z,7.83
2023-01-26T09:34:54.955Z,7.38
2023-01-26T09:35:57.514Z,6.36
2023-01-26T09:37:00.594Z,6.42
2023-01-26T09:38:03.135Z,7.21
2023-01-26T09:39:05.662Z,5.79
2023-01-26T09:40:09.034Z,5.47
2023-01-26T09:41:12.045Z,5.39
2023-01-26T09:42:14.519Z,5.93
2023-01-26T09:43:17.132Z,6.09
2023-01-26T09:44:19.655Z,5.63
2023-01-26T09:45:22.232Z,6.68
2023-01-26T09:46:24.943Z,5.72
2023-01-26T09:47:27.516Z,6.82
2023-01-26T09:48:30.053Z,5.91
2023-01-26T09:49:32.600Z,6.02
2023-01-26T09:50:35.313Z,6.09
2023-01-26T09:51:37.860Z,5.45
2023-01-26T09:52:40.391Z,5.82
2023-01-26T09:53:42.934Z,6.09
2023-01-26T09:54:45.479Z,5.44
2023-01-26T09:55:48.052Z,5.95
2023-01-26T09:56:50.894Z,7.21
2023-01-26T09:57:53.432Z,6.69
2023-01-26T09:58:55.977Z,6.98
2023-01-26T09:59:58.559Z,6.66
2023-01-26T10:01:01.354Z,5.95
2023-01-26T10:02:03.896Z,6.01
2023-01-26T10:03:06.474Z,6.79
2023-01-26T10:04:09.163Z,6.50
2023-01-26T10:05:12.056Z,6.20
2023-01-26T10:06:15.376Z,8.01
2023-01-26T10:07:17.928Z,6.10
2023-01-26T10:08:20.492Z,7.43
2023-01-26T10:09:23.074Z,5.46
2023-01-26T10:10:25.902Z,6.83
2023-01-26T10:11:28.499Z,6.61
2023-01-26T10:12:31.048Z,6.24
2023-01-26T10:13:33.633Z,6.23
2023-01-26T10:14:36.265Z,7.03
2023-01-26T10:15:38.811Z,10.81
2023-01-26T10:16:41.728Z,9.38
2023-01-26T10:17:44.252Z,6.69
2023-01-26T10:18:46.813Z,7.16
2023-01-26T10:19:49.358Z,6.87
2023-01-26T10:20:52.311Z,6.29
2023-01-26T10:21:54.893Z,5.94
2023-01-26T10:22:57.561Z,7.67
2023-01-26T10:24:00.131Z,7.59
2023-01-26T10:25:02.746Z,8.36
2023-01-26T10:26:05.437Z,8.75
2023-01-26T10:27:07.995Z,6.59
2023-01-26T10:28:10.544Z,6.74
2023-01-26T10:29:13.079Z,8.21
2023-01-26T10:30:16.027Z,8.23
2023-01-26T10:31:19.217Z,6.76
2023-01-26T10:32:22.209Z,6.19
2023-01-26T10:33:25.308Z,6.34
2023-01-26T10:34:28.247Z,7.38
2023-01-26T10:35:30.793Z,5.87
2023-01-26T10:36:33.605Z,6.05
2023-01-26T10:37:36.134Z,5.86
2023-01-26T10:38:38.663Z,7.11
2023-01-26T10:39:41.124Z,6.29
2023-01-26T10:40:44.026Z,6.79
2023-01-26T10:41:46.561Z,6.07
2023-01-26T10:42:49.121Z,7.71
2023-01-26T10:43:51.688Z,5.87
2023-01-26T10:44:54.539Z,7.39
2023-01-26T10:45:57.567Z,6.44
2023-01-26T10:47:00.641Z,6.75
2023-01-26T10:48:03.220Z,8.63
2023-01-26T10:49:06.072Z,7.39
2023-01-26T10:50:08.913Z,7.16
2023-01-26T10:51:11.355Z,7.15
2023-01-26T10:52:13.944Z,8.02
2023-01-26T10:53:16.491Z,8.59
2023-01-26T10:54:19.057Z,7.33
2023-01-26T10:55:21.579Z,6.71
2023-01-26T10:56:24.369Z,6.91
2023-01-26T10:57:26.893Z,7.33
2023-01-26T10:58:29.454Z,7.31
2023-01-26T10:59:32.100Z,6.59
2023-01-26T11:00:34.770Z,7.05
2023-01-26T11:01:37.360Z,7.05
2023-01-26T11:02:40.098Z,6.40
2023-01-26T11:03:42.625Z,8.00
2023-01-26T11:04:45.160Z,6.83
2023-01-26T11:05:48.025Z,7.39
2023-01-26T11:06:50.735Z,7.69
2023-01-26T11:07:53.309Z,6.76
2023-01-26T11:08:56.067Z,9.50
2023-01-26T11:09:58.637Z,8.13
2023-01-26T11:11:02.071Z,7.52
2023-01-26T11:12:04.613Z,8.08
2023-01-26T11:13:07.165Z,7.17
2023-01-26T11:14:09.774Z,7.08
2023-01-26T11:15:12.633Z,7.10
2023-01-26T11:16:15.676Z,7.18
2023-01-26T11:17:18.280Z,8.09
2023-01-26T11:18:20.919Z,7.29
2023-01-26T11:19:23.526Z,9.03
2023-01-26T11:20:26.467Z,8.82
2023-01-26T11:21:29.125Z,8.13
2023-01-26T11:22:31.725Z,9.30
2023-01-26T11:23:34.331Z,8.59
2023-01-26T11:24:36.941Z,10.77
2023-01-26T11:25:40.982Z,9.56
2023-01-26T11:26:43.854Z,9.28
2023-01-26T11:27:46.377Z,8.85
2023-01-26T11:28:49.215Z,9.64
2023-01-26T11:29:51.757Z,8.91
2023-01-26T11:30:54.578Z,9.55
2023-01-26T11:31:57.258Z,10.24
2023-01-26T11:32:59.847Z,9.62
2023-01-26T11:34:02.320Z,9.94
2023-01-26T11:35:04.896Z,9.12
2023-01-26T11:36:07.596Z,9.79
2023-01-26T11:37:10.130Z,9.97
2023-01-26T11:38:12.713Z,10.81
2023-01-26T11:39:15.253Z,10.75
2023-01-26T11:40:18.300Z,10.05
2023-01-26T11:41:20.834Z,9.78
2023-01-26T11:42:23.376Z,10.53
2023-01-26T11:43:25.916Z,10.91
2023-01-26T11:44:28.460Z,11.26
2023-01-26T11:45:32.269Z,9.52
2023-01-26T11:46:34.953Z,11.13
2023-01-26T11:47:37.515Z,12.24
2023-01-26T11:48:40.232Z,12.59
2023-01-26T11:49:42.752Z,12.42
2023-01-26T11:50:45.706Z,10.06
2023-01-26T11:51:48.276Z,12.31
2023-01-26T11:52:50.834Z,10.34
2023-01-26T11:53:53.375Z,9.89
2023-01-26T11:54:55.927Z,11.62
2023-01-26T11:55:58.500Z,10.91
2023-01-26T11:57:01.596Z,10.71
2023-01-26T11:58:04.107Z,9.77
2023-01-26T11:59:06.563Z,11.99
2023-01-26T12:00:20.690Z,11.74
2023-01-26T12:01:14.906Z,11.05
2023-01-26T12:02:17.579Z,10.75
2023-01-26T12:03:20.489Z,9.56
2023-01-26T12:04:22.995Z,10.28
2023-01-26T12:05:25.521Z,11.17
2023-01-26T12:06:28.379Z,13.38
2023-01-26T12:07:30.966Z,11.81
2023-01-26T12:08:33.645Z,11.87
2023-01-26T12:09:36.163Z,10.97
2023-01-26T12:10:39.030Z,13.56
2023-01-26T12:11:41.740Z,14.73
2023-01-26T12:12:44.620Z,13.17
2023-01-26T12:13:47.137Z,12.93
2023-01-26T12:14:49.771Z,13.06
2023-01-26T12:15:52.389Z,14.00
2023-01-26T12:16:58.071Z,12.29
2023-01-26T12:17:59.932Z,13.47
2023-01-26T12:19:10.771Z,12.90
2023-01-26T12:20:07.406Z,13.04
2023-01-26T12:21:10.004Z,13.82
2023-01-26T12:22:12.630Z,15.04
2023-01-26T12:23:15.153Z,11.91
2023-01-26T12:24:43.545Z,13.13
2023-01-26T12:25:22.102Z,11.91
2023-01-26T12:26:24.954Z,13.22
2023-01-26T12:27:27.492Z,13.73
2023-01-26T12:28:30.049Z,13.71
2023-01-26T12:29:32.643Z,11.74
2023-01-26T12:30:35.807Z,13.92
2023-01-26T12:31:38.664Z,13.55
2023-01-26T12:32:41.458Z,12.56
2023-01-26T12:33:44.012Z,11.89
2023-01-26T12:34:46.608Z,12.17
2023-01-26T12:35:49.147Z,12.87
2023-01-26T12:36:51.925Z,13.43
2023-01-26T12:37:54.523Z,13.93
2023-01-26T12:38:57.051Z,12.77
2023-01-26T12:39:59.647Z,11.99
2023-01-26T12:41:03.048Z,12.16
2023-01-26T12:42:05.615Z,12.23
2023-01-26T12:43:08.170Z,11.95
2023-01-26T12:44:10.740Z,12.93
2023-01-26T12:45:13.601Z,11.86
2023-01-26T12:46:16.946Z,14.79
2023-01-26T12:47:19.495Z,17.14
2023-01-26T12:48:22.042Z,15.62
2023-01-26T12:49:24.669Z,14.88
2023-01-26T12:50:27.568Z,13.95
2023-01-26T12:51:30.197Z,14.87
2023-01-26T12:52:32.731Z,15.54
2023-01-26T12:53:37.217Z,14.49
2023-01-26T12:54:39.661Z,15.99
2023-01-26T12:55:42.248Z,15.75
2023-01-26T12:56:45.102Z,15.23
2023-01-26T12:57:47.743Z,15.24
2023-01-26T12:58:50.284Z,14.83
2023-01-26T12:59:52.864Z,14.34
2023-01-26T13:00:56.069Z,11.92
2023-01-26T13:02:00.056Z,13.08
2023-01-26T13:03:02.583Z,11.85
2023-01-26T13:04:05.116Z,12.53
2023-01-26T13:05:07.736Z,12.49
2023-01-26T13:06:10.378Z,12.86
2023-01-26T13:07:12.914Z,13.33
2023-01-26T13:08:16.601Z,12.69
2023-01-26T13:09:19.132Z,13.69
2023-01-26T13:10:21.981Z,14.74
2023-01-26T13:11:24.560Z,13.59
2023-01-26T13:12:27.109Z,13.08
2023-01-26T13:13:29.660Z,12.66
2023-01-26T13:14:32.210Z,13.49
2023-01-26T13:15:34.767Z,15.72
2023-01-26T13:16:37.889Z,13.64
2023-01-26T13:17:40.665Z,16.23
2023-01-26T13:18:43.218Z,17.04
2023-01-26T13:19:45.751Z,13.90
2023-01-26T13:20:48.925Z,14.33
2023-01-26T13:21:51.500Z,14.30
2023-01-26T13:22:54.041Z,14.23
2023-01-26T13:23:56.624Z,13.63
2023-01-26T13:24:59.313Z,18.71
2023-01-26T13:26:09.659Z,14.13
2023-01-26T13:27:06.265Z,16.89
2023-01-26T13:28:08.797Z,15.25
2023-01-26T13:29:11.344Z,14.59
2023-01-26T13:30:14.449Z,14.03
2023-01-26T13:31:17.228Z,15.44
2023-01-26T13:32:19.864Z,15.90
2023-01-26T13:33:22.413Z,14.12
2023-01-26T13:34:24.949Z,18.35
2023-01-26T13:35:27.495Z,16.27
2023-01-26T13:36:30.237Z,19.87